首页
METAR-TAF:

METAR-TAF

机场 :

巴尼亚卢卡, 波斯尼亚和黑塞哥维那

纬度: 44-47N, 经度: 017-13E, 海拔: 156米

当前天气观测

该预报发布于41分钟前的21:30 UTC
风速1节,风向多变
温度 5°C
湿度 100%
气压 1001 hPa
能見度: 3000
轻雾

METAR: LQBK 122130Z VRB01KT 3000 BR NSC 05/05 Q1001 TEMPO 0800 FG

时间: 23:11 (22:11 UTC)

预报

该预报发布于5小时和11分钟前的17:00 UTC
预报有效从12日的 18点(UTC)到 13日的 18点(UTC)
风速5节,风向东转东北
能见度10公里或以上
少量云层高于2000英尺
散云层高于4500英尺
短暂存在
从 12日的 18点(UTC)到 13日的 08点(UTC)
能見度: 3000
轻雾
几率 30% :
短暂存在
从 12日的 18点(UTC)到 13日的 07点(UTC)
能見度: 1000
多云层高于700英尺
碎片雾
短暂存在
从 13日的 09点(UTC)到 13日的 18点(UTC)
风速10节,风向西转西南

TAF: LQBK 121700Z 1218/1318 06005KT 9999 FEW020 SCT045 TX15/1313Z TN07/1300Z TEMPO 1218/1308 3000 BR PROB30 TEMPO 1218/1307 1000 BCFG BKN007 TEMPO 1309/1318 24010KT RA

超过4000个机场的气象观测和天气预报(METAR&TAF报告)。

可查询的气象台以黄色和红色小点在地图上表示。

将鼠标移到小点上方,可查看气象台名称。

然后点击查看天气观测和预报。

如需切换地图:点击带黑十字的绿色按钮放大地图;点击带横线的绿色按钮缩小地图;或者点击绿色箭头查看邻近地区的地图。


METAR-TAF: